Time,TemperatureF,DewpointF,PressureIn,WindDirection,WindDirectionDegrees,WindSpeedMPH,WindSpeedGustMPH,Humidity,HourlyPrecipIn,Conditions,Clouds,dailyrainin,SolarRadiationWatts/m^2,SoftwareType,DateUTC
2013-02-08 00:05:00,31.5,27.8,30.00,East,101,0.0,0.0,86,0.00,,,0.00,0,Wunderground v.1.15,2013-02-08 05:05:00,
2013-02-08 00:10:00,31.2,27.5,30.00,East,101,0.0,0.0,86,0.00,,,0.00,0,Wunderground v.1.15,2013-02-08 05:10:00,
2013-02-08 00:20:00,30.9,27.8,30.01,East,101,0.0,0.0,88,0.00,,,0.00,0,Wunderground v.1.15,2013-02-08 05:20:00,
2013-02-08 00:25:00,30.7,27.6,30.00,East,101,0.0,0.0,88,0.00,,,0.00,0,Wunderground v.1.15,2013-02-08 05:25:00,
2013-02-08 00:30:00,30.6,27.5,30.00,East,101,0.0,0.0,88,0.00,,,0.00,0,Wunderground v.1.15,2013-02-08 05:30:00,
2013-02-08 00:40:00,30.5,27.4,30.00,East,101,0.0,0.0,88,0.00,,,0.00,0,Wunderground v.1.15,2013-02-08 05:40:00,
2013-02-08 00:45:00,30.4,27.5,29.99,East,101,0.0,0.0,89,0.00,,,0.00,0,Wunderground v.1.15,2013-02-08 05:45:00,
2013-02-08 00:50:00,30.3,27.4,29.99,East,101,0.0,0.0,89,0.00,,,0.00,0,Wunderground v.1.15,2013-02-08 05:50:00,
2013-02-08 00:55:00,30.1,27.3,29.99,East,101,0.0,0.0,89,0.00,,,0.00,0,Wunderground v.1.15,2013-02-08 05:55:00,
2013-02-08 01:05:00,29.8,27.0,29.99,East,101,0.0,0.0,89,0.00,,,0.00,0,Wunderground v.1.15,2013-02-08 06:05:00,
2013-02-08 01:15:00,29.7,27.1,29.98,East,101,0.0,0.0,90,0.00,,,0.00,0,Wunderground v.1.15,2013-02-08 06:15:00,
2013-02-08 01:20:00,29.6,27.0,29.98,East,101,0.0,0.0,90,0.00,,,0.00,0,Wunderground v.1.15,2013-02-08 06:20:00,
2013-02-08 01:30:00,29.3,26.7,29.98,East,101,0.0,0.0,90,0.00,,,0.00,0,Wunderground v.1.15,2013-02-08 06:30:00,
2013-02-08 01:35:00,29.2,26.6,29.97,East,101,0.0,0.0,90,0.00,,,0.00,0,Wunderground v.1.15,2013-02-08 06:35:00,
2013-02-08 01:40:00,29.1,26.5,29.96,East,101,0.0,0.0,90,0.00,,,0.00,0,Wunderground v.1.15,2013-02-08 06:40:00,
2013-02-08 01:45:00,29.1,26.5,29.97,East,101,0.0,0.0,90,0.00,,,0.00,0,Wunderground v.1.15,2013-02-08 06:45:00,
2013-02-08 01:55:00,28.8,26.2,29.96,East,101,0.0,0.0,90,0.00,,,0.00,0,Wunderground v.1.15,2013-02-08 06:55:00,
2013-02-08 02:05:00,28.6,26.0,29.95,East,101,0.0,0.0,90,0.00,,,0.00,0,Wunderground v.1.15,2013-02-08 07:05:00,
2013-02-08 02:10:00,28.5,25.9,29.95,East,101,0.0,0.0,90,0.00,,,0.00,0,Wunderground v.1.15,2013-02-08 07:10:00,
2013-02-08 02:15:00,28.5,26.2,29.95,East,101,0.0,0.0,91,0.00,,,0.00,0,Wunderground v.1.15,2013-02-08 07:15:00,
2013-02-08 02:25:00,28.8,26.8,29.94,East,101,0.0,0.0,92,0.00,,,0.00,0,Wunderground v.1.15,2013-02-08 07:25:00,
2013-02-08 02:30:00,28.8,26.5,29.94,East,101,0.0,0.0,91,0.00,,,0.00,0,Wunderground v.1.15,2013-02-08 07:30:00,
2013-02-08 02:40:00,28.6,26.3,29.93,East,101,0.0,0.0,91,0.00,,,0.00,0,Wunderground v.1.15,2013-02-08 07:40:00,
2013-02-08 02:45:00,28.5,26.2,29.93,East,101,0.0,0.0,91,0.00,,,0.00,0,Wunderground v.1.15,2013-02-08 07:45:00,
2013-02-08 02:55:00,28.6,26.6,29.93,East,101,0.0,0.0,92,0.00,,,0.00,0,Wunderground v.1.15,2013-02-08 07:55:00,
2013-02-08 03:05:00,28.4,26.1,29.93,East,101,0.0,0.0,91,0.00,,,0.00,0,Wunderground v.1.15,2013-02-08 08:05:00,
2013-02-08 03:15:00,28.2,26.2,29.93,East,101,0.0,0.0,92,0.00,,,0.00,0,Wunderground v.1.15,2013-02-08 08:15:00,
2013-02-08 03:20:00,28.2,26.2,29.93,East,101,0.0,0.0,92,0.00,,,0.00,0,Wunderground v.1.15,2013-02-08 08:20:00,
2013-02-08 03:30:00,28.0,26.0,29.92,East,101,0.0,0.0,92,0.00,,,0.00,0,Wunderground v.1.15,2013-02-08 08:30:00,
2013-02-08 03:35:00,28.1,26.1,29.92,East,101,0.0,0.0,92,0.00,,,0.00,0,Wunderground v.1.15,2013-02-08 08:35:00,
2013-02-08 03:45:00,28.1,26.1,29.92,East,101,0.0,0.0,92,0.00,,,0.00,0,Wunderground v.1.15,2013-02-08 08:45:00,
2013-02-08 03:50:00,28.0,26.0,29.92,East,101,0.0,0.0,92,0.00,,,0.00,0,Wunderground v.1.15,2013-02-08 08:50:00,
2013-02-08 03:55:00,28.0,26.0,29.91,East,101,0.0,0.0,92,0.00,,,0.00,0,Wunderground v.1.15,2013-02-08 08:55:00,
2013-02-08 04:00:00,28.0,26.0,29.91,East,101,0.0,0.0,92,0.00,,,0.00,0,Wunderground v.1.15,2013-02-08 09:00:00,
2013-02-08 04:10:00,28.0,26.2,29.91,East,101,0.0,0.0,93,0.00,,,0.00,0,Wunderground v.1.15,2013-02-08 09:10:00,
2013-02-08 04:15:00,28.4,26.6,29.91,East,101,0.0,0.0,93,0.00,,,0.00,0,Wunderground v.1.15,2013-02-08 09:15:00,
2013-02-08 04:25:00,28.7,26.9,29.91,East,101,0.0,0.0,93,0.00,,,0.00,0,Wunderground v.1.15,2013-02-08 09:25:00,
2013-02-08 04:30:00,28.6,26.8,29.90,East,101,0.0,0.0,93,0.00,,,0.00,0,Wunderground v.1.15,2013-02-08 09:30:00,
2013-02-08 04:35:00,28.5,26.5,29.90,East,101,0.0,0.0,92,0.00,,,0.00,0,Wunderground v.1.15,2013-02-08 09:35:00,
2013-02-08 04:45:00,28.6,26.8,29.90,East,101,0.0,0.0,93,0.00,,,0.00,0,Wunderground v.1.15,2013-02-08 09:45:00,
2013-02-08 04:55:00,28.6,26.8,29.89,East,101,0.0,0.0,93,0.00,,,0.00,0,Wunderground v.1.15,2013-02-08 09:55:00,
2013-02-08 05:05:00,28.6,26.8,29.89,East,101,0.0,0.0,93,0.00,,,0.00,0,Wunderground v.1.15,2013-02-08 10:05:00,
2013-02-08 05:15:00,28.5,26.7,29.89,East,101,0.0,0.0,93,0.00,,,0.00,0,Wunderground v.1.15,2013-02-08 10:15:00,
2013-02-08 05:20:00,28.4,26.6,29.89,East,101,0.0,0.0,93,0.00,,,0.00,0,Wunderground v.1.15,2013-02-08 10:20:00,
2013-02-08 05:30:00,28.4,26.6,29.89,East,101,0.0,0.0,93,0.00,,,0.00,0,Wunderground v.1.15,2013-02-08 10:30:00,
2013-02-08 05:40:00,28.6,26.8,29.88,East,101,0.0,0.0,93,0.00,,,0.00,0,Wunderground v.1.15,2013-02-08 10:40:00,
2013-02-08 05:50:00,29.4,27.9,29.88,East,101,0.0,0.0,94,0.00,,,0.00,0,Wunderground v.1.15,2013-02-08 10:50:00,
2013-02-08 05:55:00,29.6,28.1,29.88,East,101,0.0,0.0,94,0.00,,,0.00,0,Wunderground v.1.15,2013-02-08 10:55:00,
2013-02-08 06:05:00,29.8,28.3,29.87,SSE,163,0.0,0.0,94,0.00,,,0.00,0,Wunderground v.1.15,2013-02-08 11:05:00,
2013-02-08 06:11:00,30.1,28.6,29.87,SE,144,0.0,1.0,94,0.00,,,0.00,0,Wunderground v.1.15,2013-02-08 11:11:00,
2013-02-08 06:20:00,31.0,29.5,29.87,SE,140,0.0,0.0,94,0.00,,,0.00,0,Wunderground v.1.15,2013-02-08 11:20:00,
2013-02-08 06:25:00,31.5,30.2,29.87,SE,138,0.0,0.0,95,0.00,,,0.00,0,Wunderground v.1.15,2013-02-08 11:25:00,
2013-02-08 06:30:00,31.9,30.6,29.87,SE,145,0.0,0.0,95,0.00,,,0.00,0,Wunderground v.1.15,2013-02-08 11:30:00,
2013-02-08 06:35:00,32.2,30.7,29.87,SE,145,0.0,0.0,94,0.00,,,0.00,0,Wunderground v.1.15,2013-02-08 11:35:00,
2013-02-08 06:40:00,32.3,30.8,29.86,SE,145,0.0,0.0,94,0.00,,,0.00,0,Wunderground v.1.15,2013-02-08 11:40:00,
2013-02-08 06:50:00,32.1,30.0,29.87,SE,145,0.0,0.0,92,0.00,,,0.00,0,Wunderground v.1.15,2013-02-08 11:50:00,
2013-02-08 06:55:00,31.9,29.8,29.86,SE,145,0.0,0.0,92,0.00,,,0.00,0,Wunderground v.1.15,2013-02-08 11:55:00,
2013-02-08 07:05:00,31.9,29.8,29.85,SE,145,0.0,0.0,92,0.00,,,0.00,0,Wunderground v.1.15,2013-02-08 12:05:00,
2013-02-08 07:15:00,32.3,30.5,29.86,SE,145,0.0,0.0,93,0.00,,,0.00,0,Wunderground v.1.15,2013-02-08 12:15:00,
2013-02-08 07:20:00,32.8,31.0,29.85,SE,145,0.0,1.0,93,0.00,,,0.00,0,Wunderground v.1.15,2013-02-08 12:20:00,
2013-02-08 07:30:00,33.1,31.3,29.85,SE,145,0.0,0.0,93,0.00,,,0.00,5,Wunderground v.1.15,2013-02-08 12:30:00,
2013-02-08 07:35:00,33.3,31.2,29.86,SE,145,0.0,0.0,92,0.00,,,0.00,5,Wunderground v.1.15,2013-02-08 12:35:00,
2013-02-08 07:45:00,33.9,32.1,29.85,SE,145,0.0,0.0,93,0.00,,,0.00,18,Wunderground v.1.15,2013-02-08 12:45:00,
2013-02-08 07:50:00,34.3,32.2,29.85,SE,145,0.0,0.0,92,0.00,,,0.00,19,Wunderground v.1.15,2013-02-08 12:50:00,
2013-02-08 07:55:00,34.6,32.5,29.84,SE,145,0.0,0.0,92,0.00,,,0.00,25,Wunderground v.1.15,2013-02-08 12:55:00,
2013-02-08 08:05:00,35.4,33.0,29.84,SSE,168,1.0,1.0,91,0.00,,,0.00,37,Wunderground v.1.15,2013-02-08 13:05:00,
2013-02-08 08:15:00,36.4,33.5,29.84,SSE,157,0.0,0.0,89,0.00,,,0.00,44,Wunderground v.1.15,2013-02-08 13:15:00,
2013-02-08 08:20:00,36.9,33.7,29.84,SSE,163,1.0,1.0,88,0.00,,,0.00,47,Wunderground v.1.15,2013-02-08 13:20:00,
2013-02-08 08:25:00,37.2,33.7,29.83,South,174,1.0,2.0,87,0.00,,,0.00,53,Wunderground v.1.15,2013-02-08 13:25:00,
2013-02-08 08:35:00,38.0,33.9,29.83,SE,146,1.0,1.0,85,0.00,,,0.00,77,Wunderground v.1.15,2013-02-08 13:35:00,
2013-02-08 08:40:00,38.4,34.3,29.82,SE,144,1.0,1.0,85,0.00,,,0.00,81,Wunderground v.1.15,2013-02-08 13:40:00,
2013-02-08 08:45:00,38.8,34.4,29.82,SSE,155,1.0,1.0,84,0.00,,,0.00,79,Wunderground v.1.15,2013-02-08 13:45:00,
2013-02-08 08:55:00,39.5,34.8,29.82,SSE,168,1.0,4.0,83,0.00,,,0.00,98,Wunderground v.1.15,2013-02-08 13:55:00,
2013-02-08 09:01:00,39.8,34.8,29.82,SSW,212,1.0,3.0,82,0.00,,,0.00,111,Wunderground v.1.15,2013-02-08 14:01:00,
2013-02-08 09:10:00,40.3,34.9,29.81,SSE,162,1.0,4.0,81,0.00,,,0.00,77,Wunderground v.1.15,2013-02-08 14:10:00,
2013-02-08 09:15:00,40.4,35.0,29.81,South,187,2.0,4.0,81,0.00,,,0.00,62,Wunderground v.1.15,2013-02-08 14:15:00,
2013-02-08 09:25:00,40.6,34.9,29.81,SW,222,1.0,1.0,80,0.00,,,0.00,53,Wunderground v.1.15,2013-02-08 14:25:00,
2013-02-08 09:30:00,40.7,35.3,29.82,SW,222,1.0,1.0,81,0.00,,,0.00,28,Wunderground v.1.15,2013-02-08 14:30:00,
2013-02-08 09:35:00,40.7,35.6,29.82,SW,222,0.0,0.0,82,0.00,,,0.01,21,Wunderground v.1.15,2013-02-08 14:35:00,
2013-02-08 09:45:00,40.4,36.5,29.82,SW,222,0.0,0.0,86,0.17,,,0.03,32,Wunderground v.1.15,2013-02-08 14:45:00,
2013-02-08 09:51:00,40.0,36.4,29.82,SW,222,0.0,0.0,87,0.08,,,0.03,32,Wunderground v.1.15,2013-02-08 14:51:00,
2013-02-08 10:00:00,39.2,36.2,29.82,SE,146,0.0,2.0,89,0.05,,,0.04,44,Wunderground v.1.15,2013-02-08 15:00:00,
2013-02-08 10:10:00,38.6,35.9,29.83,SW,221,1.0,1.0,90,0.05,,,0.05,84,Wunderground v.1.15,2013-02-08 15:10:00,
2013-02-08 10:20:00,38.6,36.5,29.82,SW,221,0.0,0.0,92,0.04,,,0.05,53,Wunderground v.1.15,2013-02-08 15:20:00,
2013-02-08 10:25:00,38.6,36.5,29.82,SW,221,0.0,0.0,92,0.00,,,0.05,54,Wunderground v.1.15,2013-02-08 15:25:00,
2013-02-08 10:30:00,38.6,36.5,29.82,SW,221,0.0,0.0,92,0.00,,,0.05,39,Wunderground v.1.15,2013-02-08 15:30:00,
2013-02-08 10:40:00,38.5,36.4,29.83,SSW,193,0.0,0.0,92,0.00,,,0.06,39,Wunderground v.1.15,2013-02-08 15:40:00,
2013-02-08 10:45:00,38.4,36.3,29.83,SSW,193,0.0,0.0,92,0.00,,,0.06,40,Wunderground v.1.15,2013-02-08 15:45:00,
2013-02-08 10:50:00,38.3,36.5,29.83,SSW,193,0.0,0.0,93,0.04,,,0.07,53,Wunderground v.1.15,2013-02-08 15:50:00,
2013-02-08 10:55:00,38.3,36.5,29.83,SSW,193,0.0,0.0,93,0.08,,,0.07,40,Wunderground v.1.15,2013-02-08 15:55:00,
2013-02-08 11:05:00,38.3,36.5,29.83,SSW,193,0.0,0.0,93,0.08,,,0.09,60,Wunderground v.1.15,2013-02-08 16:05:00,
2013-02-08 11:15:00,38.4,36.6,29.83,SSW,193,0.0,0.0,93,0.05,,,0.10,44,Wunderground v.1.15,2013-02-08 16:15:00,
2013-02-08 11:25:00,38.5,36.9,29.82,SSW,193,0.0,2.0,94,0.05,,,0.10,72,Wunderground v.1.15,2013-02-08 16:25:00,
2013-02-08 11:35:00,38.7,37.1,29.82,SSW,193,0.0,0.0,94,0.04,,,0.11,40,Wunderground v.1.15,2013-02-08 16:35:00,
2013-02-08 11:45:00,38.8,37.2,29.82,SSW,207,1.0,1.0,94,0.08,,,0.12,37,Wunderground v.1.15,2013-02-08 16:45:00,
2013-02-08 11:50:00,38.8,37.2,29.82,SSW,207,0.0,0.0,94,0.05,,,0.12,37,Wunderground v.1.15,2013-02-08 16:50:00,
2013-02-08 12:01:00,38.8,37.2,29.81,SSW,207,0.0,2.0,94,0.04,,,0.13,23,Wunderground v.1.15,2013-02-08 17:01:00,
2013-02-08 12:10:00,38.8,37.2,29.82,SSW,207,1.0,5.0,94,0.04,,,0.13,21,Wunderground v.1.15,2013-02-08 17:10:00,
2013-02-08 12:15:00,38.8,37.2,29.82,SW,219,1.0,2.0,94,0.00,,,0.13,19,Wunderground v.1.15,2013-02-08 17:15:00,
2013-02-08 12:25:00,38.6,37.0,29.82,SW,219,0.0,0.0,94,0.00,,,0.13,21,Wunderground v.1.15,2013-02-08 17:25:00,
2013-02-08 12:30:00,38.6,37.0,29.82,SSW,213,0.0,1.0,94,0.00,,,0.13,40,Wunderground v.1.15,2013-02-08 17:30:00,
2013-02-08 12:35:00,38.6,37.0,29.82,WSW,238,1.0,1.0,94,0.00,,,0.13,30,Wunderground v.1.15,2013-02-08 17:35:00,
2013-02-08 12:45:00,38.8,37.2,29.82,WSW,245,1.0,1.0,94,0.00,,,0.13,30,Wunderground v.1.15,2013-02-08 17:45:00,
2013-02-08 12:50:00,38.7,37.1,29.82,WNW,302,0.0,1.0,94,0.00,,,0.13,33,Wunderground v.1.15,2013-02-08 17:50:00,
2013-02-08 13:00:00,38.6,37.0,29.83,WSW,249,3.0,3.0,94,0.00,,,0.13,26,Wunderground v.1.15,2013-02-08 18:00:00,
2013-02-08 13:10:00,38.2,36.6,29.83,West,276,2.0,5.0,94,0.00,,,0.13,19,Wunderground v.1.15,2013-02-08 18:10:00,
2013-02-08 13:15:00,38.0,36.4,29.83,West,280,3.0,5.0,94,0.00,,,0.13,18,Wunderground v.1.15,2013-02-08 18:15:00,
2013-02-08 13:20:00,37.8,36.2,29.83,WNW,298,2.0,3.0,94,0.00,,,0.13,14,Wunderground v.1.15,2013-02-08 18:20:00,
2013-02-08 13:30:00,37.5,35.9,29.84,WNW,285,4.0,4.0,94,0.00,,,0.13,12,Wunderground v.1.15,2013-02-08 18:30:00,
2013-02-08 13:35:00,37.3,35.7,29.84,WNW,286,3.0,4.0,94,0.00,,,0.13,12,Wunderground v.1.15,2013-02-08 18:35:00,
2013-02-08 13:45:00,36.9,35.3,29.85,West,281,2.0,4.0,94,0.00,,,0.13,12,Wunderground v.1.15,2013-02-08 18:45:00,
2013-02-08 13:55:00,36.3,34.5,29.85,NW,304,5.0,13.0,93,0.00,,,0.13,16,Wunderground v.1.15,2013-02-08 18:55:00,
2013-02-08 14:00:00,36.0,34.4,29.86,NW,306,6.0,6.0,94,0.00,,,0.13,12,Wunderground v.1.15,2013-02-08 19:00:00,
2013-02-08 14:10:00,35.6,34.0,29.86,WNW,296,4.0,4.0,94,0.00,,,0.13,16,Wunderground v.1.15,2013-02-08 19:10:00,
2013-02-08 14:15:00,35.4,33.8,29.87,NW,311,4.0,7.0,94,0.00,,,0.13,16,Wunderground v.1.15,2013-02-08 19:15:00,
2013-02-08 14:25:00,35.0,33.2,29.87,NW,313,6.0,7.0,93,0.00,,,0.13,14,Wunderground v.1.15,2013-02-08 19:25:00,
2013-02-08 14:30:00,34.8,33.0,29.87,NW,307,5.0,5.0,93,0.00,,,0.13,12,Wunderground v.1.15,2013-02-08 19:30:00,
2013-02-08 14:40:00,34.6,32.8,29.88,West,270,2.0,2.0,93,0.00,,,0.13,23,Wunderground v.1.15,2013-02-08 19:40:00,
2013-02-08 14:45:00,34.4,32.6,29.88,West,269,4.0,6.0,93,0.00,,,0.13,21,Wunderground v.1.15,2013-02-08 19:45:00,
2013-02-08 14:55:00,34.1,32.0,29.88,West,269,4.0,5.0,92,0.00,,,0.13,18,Wunderground v.1.15,2013-02-08 19:55:00,
2013-02-08 15:05:00,33.7,31.4,29.89,NW,308,5.0,6.0,91,0.00,,,0.13,14,Wunderground v.1.15,2013-02-08 20:05:00,
2013-02-08 15:10:00,33.5,31.2,29.89,WNW,292,5.0,9.0,91,0.00,,,0.13,16,Wunderground v.1.15,2013-02-08 20:10:00,
2013-02-08 15:20:00,33.4,30.8,29.90,NW,317,5.0,10.0,90,0.00,,,0.13,14,Wunderground v.1.15,2013-02-08 20:20:00,
2013-02-08 15:25:00,33.3,30.7,29.90,NNW,328,6.0,6.0,90,0.00,,,0.13,12,Wunderground v.1.15,2013-02-08 20:25:00,
2013-02-08 15:35:00,33.2,30.3,29.91,West,265,5.0,5.0,89,0.00,,,0.13,14,Wunderground v.1.15,2013-02-08 20:35:00,
2013-02-08 15:45:00,33.1,30.2,29.91,West,261,5.0,5.0,89,0.00,,,0.13,11,Wunderground v.1.15,2013-02-08 20:45:00,
2013-02-08 15:50:00,33.1,30.2,29.91,WNW,294,5.0,5.0,89,0.00,,,0.13,9,Wunderground v.1.15,2013-02-08 20:50:00,
2013-02-08 16:01:00,32.9,30.0,29.92,WNW,292,5.0,5.0,89,0.00,,,0.13,9,Wunderground v.1.15,2013-02-08 21:01:00,
2013-02-08 16:10:00,32.6,29.2,29.93,NNW,333,5.0,9.0,87,0.00,,,0.13,14,Wunderground v.1.15,2013-02-08 21:10:00,
2013-02-08 16:20:00,32.3,28.6,29.93,WSW,242,6.0,6.0,86,0.00,,,0.13,23,Wunderground v.1.15,2013-02-08 21:20:00,
2013-02-08 16:30:00,32.1,28.7,29.94,WNW,300,5.0,8.0,87,0.00,,,0.13,14,Wunderground v.1.15,2013-02-08 21:30:00,
2013-02-08 16:40:00,31.9,28.2,29.94,WNW,288,4.0,5.0,86,0.00,,,0.13,14,Wunderground v.1.15,2013-02-08 21:40:00,
2013-02-08 16:45:00,31.8,28.1,29.95,NW,305,4.0,4.0,86,0.00,,,0.13,14,Wunderground v.1.15,2013-02-08 21:45:00,
2013-02-08 16:55:00,31.6,27.6,29.95,WNW,295,6.0,6.0,85,0.00,,,0.13,11,Wunderground v.1.15,2013-02-08 21:55:00,
2013-02-08 17:05:00,31.4,27.4,29.96,NNW,342,5.0,21.0,85,0.00,,,0.13,5,Wunderground v.1.15,2013-02-08 22:05:00,
2013-02-08 17:15:00,31.3,27.3,29.97,WNW,294,4.0,4.0,85,0.00,,,0.13,0,Wunderground v.1.15,2013-02-08 22:15:00,
2013-02-08 17:20:00,31.2,27.5,29.98,West,275,4.0,4.0,86,0.00,,,0.13,0,Wunderground v.1.15,2013-02-08 22:20:00,
2013-02-08 17:25:00,31.1,27.4,29.98,WNW,294,4.0,6.0,86,0.00,,,0.13,0,Wunderground v.1.15,2013-02-08 22:25:00,
2013-02-08 17:30:00,31.0,27.0,29.99,NW,319,5.0,11.0,85,0.00,,,0.13,0,Wunderground v.1.15,2013-02-08 22:30:00,
2013-02-08 17:40:00,30.7,25.9,29.99,NNE,15,8.0,8.0,82,0.00,,,0.13,0,Wunderground v.1.15,2013-02-08 22:40:00,
2013-02-08 17:45:00,30.6,25.5,30.00,NNW,338,9.0,18.0,81,0.00,,,0.13,0,Wunderground v.1.15,2013-02-08 22:45:00,
2013-02-08 17:55:00,30.3,25.5,30.00,NW,321,7.0,8.0,82,0.00,,,0.13,0,Wunderground v.1.15,2013-02-08 22:55:00,
2013-02-08 18:00:00,30.3,25.8,30.00,WNW,290,4.0,6.0,83,0.00,,,0.13,0,Wunderground v.1.15,2013-02-08 23:00:00,
2013-02-08 18:10:00,30.2,25.9,30.01,WNW,288,4.0,7.0,84,0.00,,,0.13,0,Wunderground v.1.15,2013-02-08 23:10:00,
2013-02-08 18:15:00,30.1,25.8,30.01,NNW,339,4.0,7.0,84,0.00,,,0.13,0,Wunderground v.1.15,2013-02-08 23:15:00,
2013-02-08 18:25:00,29.8,25.6,30.01,WSW,250,6.0,10.0,84,0.00,,,0.13,0,Wunderground v.1.15,2013-02-08 23:25:00,
2013-02-08 18:30:00,29.8,25.6,30.02,NW,304,7.0,7.0,84,0.00,,,0.13,0,Wunderground v.1.15,2013-02-08 23:30:00,
2013-02-08 18:35:00,29.7,25.5,30.03,NW,314,6.0,7.0,84,0.00,,,0.13,0,Wunderground v.1.15,2013-02-08 23:35:00,
2013-02-08 18:45:00,29.6,25.4,30.03,NW,304,6.0,12.0,84,0.00,,,0.13,0,Wunderground v.1.15,2013-02-08 23:45:00,
2013-02-08 18:50:00,29.5,25.0,30.04,NNW,341,7.0,7.0,83,0.00,,,0.13,0,Wunderground v.1.15,2013-02-08 23:50:00,
2013-02-08 19:00:00,29.4,24.6,30.04,NW,315,7.0,7.0,82,0.00,,,0.13,0,Wunderground v.1.15,2013-02-09 00:00:00,
2013-02-08 19:10:00,29.4,24.9,30.05,NNW,339,4.0,7.0,83,0.00,,,0.13,0,Wunderground v.1.15,2013-02-09 00:10:00,
2013-02-08 19:20:00,29.3,24.8,30.05,NNW,331,8.0,8.0,83,0.00,,,0.13,0,Wunderground v.1.15,2013-02-09 00:20:00,
2013-02-08 19:30:00,29.2,25.0,30.05,West,274,5.0,5.0,84,0.00,,,0.13,0,Wunderground v.1.15,2013-02-09 00:30:00,
2013-02-08 19:35:00,29.1,24.9,30.06,West,261,5.0,5.0,84,0.00,,,0.13,0,Wunderground v.1.15,2013-02-09 00:35:00,
2013-02-08 19:40:00,29.1,24.9,30.06,NNW,338,5.0,5.0,84,0.00,,,0.13,0,Wunderground v.1.15,2013-02-09 00:40:00,
2013-02-08 19:50:00,29.0,25.1,30.07,NW,315,5.0,5.0,85,0.00,,,0.13,0,Wunderground v.1.15,2013-02-09 00:50:00,
2013-02-08 20:01:00,28.9,25.5,30.07,NNW,328,2.0,3.0,87,0.00,,,0.13,0,Wunderground v.1.15,2013-02-09 01:01:00,
2013-02-08 20:10:00,28.9,25.5,30.08,NNW,329,3.0,5.0,87,0.00,,,0.13,0,Wunderground v.1.15,2013-02-09 01:10:00,
2013-02-08 20:15:00,28.9,25.5,30.08,NW,313,2.0,7.0,87,0.00,,,0.13,0,Wunderground v.1.15,2013-02-09 01:15:00,
2013-02-08 20:25:00,28.8,25.7,30.08,NW,304,2.0,2.0,88,0.00,,,0.13,0,Wunderground v.1.15,2013-02-09 01:25:00,
2013-02-08 20:30:00,28.7,25.6,30.08,NW,314,1.0,2.0,88,0.00,,,0.13,0,Wunderground v.1.15,2013-02-09 01:30:00,
2013-02-08 20:40:00,28.6,25.5,30.08,NW,318,2.0,5.0,88,0.00,,,0.13,0,Wunderground v.1.15,2013-02-09 01:40:00,
2013-02-08 20:50:00,28.5,25.4,30.09,WNW,296,3.0,7.0,88,0.00,,,0.13,0,Wunderground v.1.15,2013-02-09 01:50:00,
2013-02-08 21:00:00,28.5,25.1,30.09,WNW,302,4.0,8.0,87,0.00,,,0.13,0,Wunderground v.1.15,2013-02-09 02:00:00,
2013-02-08 21:05:00,28.4,24.7,30.10,WNW,302,6.0,8.0,86,0.00,,,0.13,0,Wunderground v.1.15,2013-02-09 02:05:00,
2013-02-08 21:15:00,28.4,24.7,30.10,West,281,5.0,6.0,86,0.00,,,0.13,0,Wunderground v.1.15,2013-02-09 02:15:00,
2013-02-08 21:25:00,28.4,24.5,30.10,WNW,296,6.0,9.0,85,0.00,,,0.13,0,Wunderground v.1.15,2013-02-09 02:25:00,
2013-02-08 21:35:00,28.4,24.7,30.11,NNW,333,4.0,7.0,86,0.00,,,0.13,0,Wunderground v.1.15,2013-02-09 02:35:00,
2013-02-08 21:45:00,28.5,24.8,30.12,NW,311,5.0,9.0,86,0.00,,,0.13,0,Wunderground v.1.15,2013-02-09 02:45:00,
2013-02-08 21:55:00,28.4,24.7,30.12,NW,313,6.0,6.0,86,0.00,,,0.13,0,Wunderground v.1.15,2013-02-09 02:55:00,
2013-02-08 22:05:00,28.4,24.5,30.13,NNW,340,5.0,6.0,85,0.00,,,0.13,0,Wunderground v.1.15,2013-02-09 03:05:00,
2013-02-08 22:10:00,28.4,24.5,30.13,WNW,282,6.0,6.0,85,0.00,,,0.13,0,Wunderground v.1.15,2013-02-09 03:10:00,
2013-02-08 22:15:00,28.4,24.7,30.13,West,277,6.0,6.0,86,0.00,,,0.13,0,Wunderground v.1.15,2013-02-09 03:15:00,
2013-02-08 22:25:00,28.3,24.9,30.14,WNW,285,4.0,4.0,87,0.00,,,0.13,0,Wunderground v.1.15,2013-02-09 03:25:00,
2013-02-08 22:35:00,28.1,24.7,30.14,NNW,328,6.0,6.0,87,0.00,,,0.13,0,Wunderground v.1.15,2013-02-09 03:35:00,
2013-02-08 22:45:00,28.1,24.7,30.14,WNW,300,2.0,4.0,87,0.00,,,0.13,0,Wunderground v.1.15,2013-02-09 03:45:00,
2013-02-08 22:50:00,28.0,24.9,30.14,NW,309,2.0,4.0,88,0.00,,,0.13,0,Wunderground v.1.15,2013-02-09 03:50:00,
2013-02-08 22:55:00,27.9,24.8,30.14,NW,321,2.0,6.0,88,0.00,,,0.13,0,Wunderground v.1.15,2013-02-09 03:55:00,
2013-02-08 23:00:00,27.8,24.7,30.14,NW,322,4.0,4.0,88,0.00,,,0.13,0,Wunderground v.1.15,2013-02-09 04:00:00,
2013-02-08 23:10:00,27.7,24.6,30.15,NNW,341,4.0,10.0,88,0.00,,,0.13,0,Wunderground v.1.15,2013-02-09 04:10:00,
2013-02-08 23:20:00,27.8,24.2,30.15,NW,323,6.0,6.0,86,0.00,,,0.13,0,Wunderground v.1.15,2013-02-09 04:20:00,
2013-02-08 23:30:00,27.8,23.6,30.15,West,279,8.0,8.0,84,0.00,,,0.13,0,Wunderground v.1.15,2013-02-09 04:30:00,
2013-02-08 23:35:00,27.8,23.6,30.15,WNW,292,7.0,9.0,84,0.00,,,0.13,0,Wunderground v.1.15,2013-02-09 04:35:00,
2013-02-08 23:45:00,27.8,23.6,30.16,NNE,18,6.0,9.0,84,0.00,,,0.13,0,Wunderground v.1.15,2013-02-09 04:45:00,
2013-02-08 23:55:00,27.7,24.1,30.16,NW,315,3.0,5.0,86,0.00,,,0.13,0,Wunderground v.1.15,2013-02-09 04:55:00,